sensor_id;sensor_type;location;lat;lon;timestamp;pressure;altitude;pressure_sealevel;temperature;humidity
23899;BME280;20544;50.018;20.010;2023-04-15T00:00:48;97544.11;;;10.76;100.00
23899;BME280;20544;50.018;20.010;2023-04-15T00:04:07;97546.98;;;10.74;100.00
23899;BME280;20544;50.018;20.010;2023-04-15T00:07:27;97547.63;;;10.63;100.00
23899;BME280;20544;50.018;20.010;2023-04-15T00:10:47;97554.32;;;10.72;100.00
23899;BME280;20544;50.018;20.010;2023-04-15T00:14:10;97551.95;;;10.57;100.00
23899;BME280;20544;50.018;20.010;2023-04-15T00:17:29;97560.31;;;10.54;100.00
23899;BME280;20544;50.018;20.010;2023-04-15T00:20:48;97558.89;;;10.51;100.00
23899;BME280;20544;50.018;20.010;2023-04-15T00:24:09;97569.89;;;10.55;100.00
23899;BME280;20544;50.018;20.010;2023-04-15T00:27:29;97561.71;;;10.63;100.00
23899;BME280;20544;50.018;20.010;2023-04-15T00:30:54;97541.69;;;10.67;100.00
23899;BME280;20544;50.018;20.010;2023-04-15T00:34:14;97537.84;;;10.63;100.00
23899;BME280;20544;50.018;20.010;2023-04-15T00:37:38;97541.75;;;10.54;100.00
23899;BME280;20544;50.018;20.010;2023-04-15T00:41:01;97540.11;;;10.60;100.00
23899;BME280;20544;50.018;20.010;2023-04-15T00:44:25;97534.45;;;10.49;100.00
23899;BME280;20544;50.018;20.010;2023-04-15T00:47:41;97526.28;;;10.51;100.00
23899;BME280;20544;50.018;20.010;2023-04-15T00:54:05;97528.77;;;10.46;100.00
23899;BME280;20544;50.018;20.010;2023-04-15T00:57:27;97532.04;;;10.41;100.00
23899;BME280;20544;50.018;20.010;2023-04-15T01:00:44;97549.58;;;10.35;100.00
23899;BME280;20544;50.018;20.010;2023-04-15T01:04:08;97549.79;;;10.41;100.00
23899;BME280;20544;50.018;20.010;2023-04-15T01:07:26;97552.62;;;10.46;100.00
23899;BME280;20544;50.018;20.010;2023-04-15T01:10:43;97550.38;;;10.43;100.00
23899;BME280;20544;50.018;20.010;2023-04-15T01:14:01;97544.49;;;10.41;100.00
23899;BME280;20544;50.018;20.010;2023-04-15T01:17:19;97550.38;;;10.43;100.00
23899;BME280;20544;50.018;20.010;2023-04-15T01:20:40;97552.05;;;10.37;100.00
23899;BME280;20544;50.018;20.010;2023-04-15T01:24:07;97568.13;;;10.35;100.00
23899;BME280;20544;50.018;20.010;2023-04-15T01:27:27;97567.52;;;10.27;100.00
23899;BME280;20544;50.018;20.010;2023-04-15T01:30:43;97561.64;;;10.25;100.00
23899;BME280;20544;50.018;20.010;2023-04-15T01:40:08;97552.85;;;10.31;100.00
23899;BME280;20544;50.018;20.010;2023-04-15T01:43:31;97551.03;;;10.38;100.00
23899;BME280;20544;50.018;20.010;2023-04-15T01:46:56;97555.33;;;10.26;100.00
23899;BME280;20544;50.018;20.010;2023-04-15T01:53:22;97548.39;;;10.25;100.00
23899;BME280;20544;50.018;20.010;2023-04-15T01:56:41;97563.05;;;10.27;100.00
23899;BME280;20544;50.018;20.010;2023-04-15T02:00:06;97572.45;;;10.23;100.00
23899;BME280;20544;50.018;20.010;2023-04-15T02:03:32;97579.84;;;10.01;100.00
23899;BME280;20544;50.018;20.010;2023-04-15T02:06:54;97561.30;;;10.01;100.00
23899;BME280;20544;50.018;20.010;2023-04-15T02:10:11;97572.09;;;10.06;100.00
23899;BME280;20544;50.018;20.010;2023-04-15T02:13:33;97582.47;;;10.08;100.00
23899;BME280;20544;50.018;20.010;2023-04-15T02:16:53;97585.92;;;10.15;100.00
23899;BME280;20544;50.018;20.010;2023-04-15T02:20:13;97578.00;;;10.08;100.00
23899;BME280;20544;50.018;20.010;2023-04-15T02:23:30;97584.93;;;10.02;100.00
23899;BME280;20544;50.018;20.010;2023-04-15T02:26:47;97585.59;;;9.84;100.00
23899;BME280;20544;50.018;20.010;2023-04-15T02:30:07;97592.31;;;9.74;100.00
23899;BME280;20544;50.018;20.010;2023-04-15T02:33:24;97594.73;;;9.82;100.00
23899;BME280;20544;50.018;20.010;2023-04-15T02:36:41;97598.61;;;9.86;100.00
23899;BME280;20544;50.018;20.010;2023-04-15T02:40:01;97602.09;;;9.53;100.00
23899;BME280;20544;50.018;20.010;2023-04-15T02:43:19;97588.04;;;9.39;100.00
23899;BME280;20544;50.018;20.010;2023-04-15T02:46:36;97585.00;;;9.42;100.00
23899;BME280;20544;50.018;20.010;2023-04-15T02:49:54;97575.83;;;9.31;100.00
23899;BME280;20544;50.018;20.010;2023-04-15T02:53:13;97577.03;;;9.15;100.00
23899;BME280;20544;50.018;20.010;2023-04-15T02:56:30;97585.11;;;8.80;100.00
23899;BME280;20544;50.018;20.010;2023-04-15T02:59:50;97587.54;;;8.75;100.00
23899;BME280;20544;50.018;20.010;2023-04-15T03:03:08;97593.63;;;8.76;100.00
23899;BME280;20544;50.018;20.010;2023-04-15T03:06:30;97596.48;;;8.74;100.00
23899;BME280;20544;50.018;20.010;2023-04-15T03:09:48;97599.76;;;8.83;100.00
23899;BME280;20544;50.018;20.010;2023-04-15T03:13:07;97597.95;;;8.90;100.00
23899;BME280;20544;50.018;20.010;2023-04-15T03:16:24;97606.09;;;8.95;100.00
23899;BME280;20544;50.018;20.010;2023-04-15T03:22:44;97596.84;;;8.57;100.00
23899;BME280;20544;50.018;20.010;2023-04-15T03:26:04;97604.55;;;8.52;100.00
23899;BME280;20544;50.018;20.010;2023-04-15T03:29:21;97612.71;;;8.64;100.00
23899;BME280;20544;50.018;20.010;2023-04-15T03:32:38;97609.91;;;8.72;100.00
23899;BME280;20544;50.018;20.010;2023-04-15T03:38:58;97610.16;;;8.42;100.00
23899;BME280;20544;50.018;20.010;2023-04-15T03:42:15;97610.02;;;8.16;100.00
23899;BME280;20544;50.018;20.010;2023-04-15T03:45:32;97614.06;;;8.12;100.00
23899;BME280;20544;50.018;20.010;2023-04-15T03:48:49;97630.16;;;8.23;100.00
23899;BME280;20544;50.018;20.010;2023-04-15T03:52:07;97626.38;;;8.33;100.00
23899;BME280;20544;50.018;20.010;2023-04-15T03:55:23;97633.11;;;8.42;100.00
23899;BME280;20544;50.018;20.010;2023-04-15T03:58:39;97642.88;;;8.41;100.00
23899;BME280;20544;50.018;20.010;2023-04-15T04:01:56;97656.81;;;8.29;100.00
23899;BME280;20544;50.018;20.010;2023-04-15T04:05:15;97665.65;;;8.07;100.00
23899;BME280;20544;50.018;20.010;2023-04-15T04:08:32;97673.90;;;7.98;100.00
23899;BME280;20544;50.018;20.010;2023-04-15T04:11:48;97661.80;;;8.10;100.00
23899;BME280;20544;50.018;20.010;2023-04-15T04:15:08;97663.67;;;8.16;100.00
23899;BME280;20544;50.018;20.010;2023-04-15T04:18:26;97663.81;;;8.08;100.00
23899;BME280;20544;50.018;20.010;2023-04-15T04:21:43;97672.09;;;8.05;100.00
23899;BME280;20544;50.018;20.010;2023-04-15T04:25:00;97670.49;;;8.04;100.00
23899;BME280;20544;50.018;20.010;2023-04-15T04:28:20;97670.73;;;8.09;100.00
23899;BME280;20544;50.018;20.010;2023-04-15T04:31:38;97665.45;;;8.09;100.00
23899;BME280;20544;50.018;20.010;2023-04-15T04:38:01;97670.39;;;8.19;100.00
23899;BME280;20544;50.018;20.010;2023-04-15T04:41:18;97661.63;;;8.18;100.00
23899;BME280;20544;50.018;20.010;2023-04-15T04:44:37;97670.65;;;8.31;100.00
23899;BME280;20544;50.018;20.010;2023-04-15T04:47:54;97669.23;;;8.35;100.00
23899;BME280;20544;50.018;20.010;2023-04-15T04:51:15;97667.86;;;8.39;100.00
23899;BME280;20544;50.018;20.010;2023-04-15T04:54:32;97667.45;;;8.42;100.00
23899;BME280;20544;50.018;20.010;2023-04-15T04:57:50;97675.81;;;8.46;100.00
23899;BME280;20544;50.018;20.010;2023-04-15T05:01:11;97675.38;;;8.42;100.00
23899;BME280;20544;50.018;20.010;2023-04-15T05:07:37;97683.00;;;8.52;100.00
23899;BME280;20544;50.018;20.010;2023-04-15T05:10:57;97683.22;;;8.57;100.00
23899;BME280;20544;50.018;20.010;2023-04-15T05:14:22;97689.79;;;8.68;100.00
23899;BME280;20544;50.018;20.010;2023-04-15T05:17:48;97692.45;;;8.74;100.00
23899;BME280;20544;50.018;20.010;2023-04-15T05:24:11;97704.79;;;9.02;100.00
23899;BME280;20544;50.018;20.010;2023-04-15T05:27:39;97709.94;;;9.24;100.00
23899;BME280;20544;50.018;20.010;2023-04-15T05:30:56;97710.81;;;9.51;100.00
23899;BME280;20544;50.018;20.010;2023-04-15T05:40:20;97705.56;;;9.98;100.00
23899;BME280;20544;50.018;20.010;2023-04-15T05:43:40;97714.11;;;10.14;100.00
23899;BME280;20544;50.018;20.010;2023-04-15T05:47:00;97718.78;;;10.25;100.00
23899;BME280;20544;50.018;20.010;2023-04-15T05:50:18;97709.41;;;10.49;100.00
23899;BME280;20544;50.018;20.010;2023-04-15T05:53:35;97722.00;;;10.74;100.00
23899;BME280;20544;50.018;20.010;2023-04-15T05:56:51;97721.09;;;10.94;100.00
23899;BME280;20544;50.018;20.010;2023-04-15T06:00:13;97723.08;;;11.12;100.00
23899;BME280;20544;50.018;20.010;2023-04-15T06:03:30;97725.20;;;11.35;100.00
23899;BME280;20544;50.018;20.010;2023-04-15T06:06:47;97739.64;;;11.46;100.00
23899;BME280;20544;50.018;20.010;2023-04-15T06:10:07;97739.67;;;11.78;100.00
23899;BME280;20544;50.018;20.010;2023-04-15T06:13:24;97751.02;;;11.92;100.00
23899;BME280;20544;50.018;20.010;2023-04-15T06:16:44;97760.06;;;11.84;100.00
23899;BME280;20544;50.018;20.010;2023-04-15T06:20:13;97754.02;;;12.02;100.00
23899;BME280;20544;50.018;20.010;2023-04-15T06:27:27;97753.67;;;12.68;100.00
23899;BME280;20544;50.018;20.010;2023-04-15T06:30:47;97756.55;;;12.66;100.00
23899;BME280;20544;50.018;20.010;2023-04-15T06:34:04;97759.22;;;12.66;100.00
23899;BME280;20544;50.018;20.010;2023-04-15T06:37:25;97767.41;;;12.83;100.00
23899;BME280;20544;50.018;20.010;2023-04-15T06:40:44;97767.87;;;12.80;100.00
23899;BME280;20544;50.018;20.010;2023-04-15T06:44:03;97772.95;;;12.82;100.00
23899;BME280;20544;50.018;20.010;2023-04-15T06:47:23;97771.85;;;12.89;100.00
23899;BME280;20544;50.018;20.010;2023-04-15T06:53:43;97778.66;;;13.04;100.00
23899;BME280;20544;50.018;20.010;2023-04-15T06:57:01;97786.33;;;13.12;100.00
23899;BME280;20544;50.018;20.010;2023-04-15T07:00:20;97789.81;;;13.31;100.00
23899;BME280;20544;50.018;20.010;2023-04-15T07:03:40;97798.11;;;13.41;100.00
23899;BME280;20544;50.018;20.010;2023-04-15T07:06:58;97804.04;;;13.43;100.00
23899;BME280;20544;50.018;20.010;2023-04-15T07:10:14;97800.01;;;13.34;100.00
23899;BME280;20544;50.018;20.010;2023-04-15T07:13:33;97796.41;;;13.29;100.00
23899;BME280;20544;50.018;20.010;2023-04-15T07:16:50;97803.42;;;13.23;100.00
23899;BME280;20544;50.018;20.010;2023-04-15T07:20:08;97798.84;;;13.30;100.00
23899;BME280;20544;50.018;20.010;2023-04-15T07:23:28;97801.27;;;13.32;100.00
23899;BME280;20544;50.018;20.010;2023-04-15T07:26:45;97806.08;;;13.60;100.00
23899;BME280;20544;50.018;20.010;2023-04-15T07:30:01;97804.47;;;13.40;100.00
23899;BME280;20544;50.018;20.010;2023-04-15T07:33:21;97821.27;;;13.59;100.00
23899;BME280;20544;50.018;20.010;2023-04-15T07:36:38;97826.32;;;13.80;100.00
23899;BME280;20544;50.018;20.010;2023-04-15T07:39:57;97819.09;;;13.68;100.00
23899;BME280;20544;50.018;20.010;2023-04-15T07:43:16;97828.52;;;13.83;100.00
23899;BME280;20544;50.018;20.010;2023-04-15T07:46:32;97830.88;;;13.91;100.00
23899;BME280;20544;50.018;20.010;2023-04-15T07:55:57;97831.86;;;13.78;100.00
23899;BME280;20544;50.018;20.010;2023-04-15T07:59:15;97834.11;;;13.93;100.00
23899;BME280;20544;50.018;20.010;2023-04-15T08:02:32;97838.33;;;14.01;100.00
23899;BME280;20544;50.018;20.010;2023-04-15T08:08:53;97850.20;;;14.71;100.00
23899;BME280;20544;50.018;20.010;2023-04-15T08:12:10;97844.30;;;14.81;100.00
23899;BME280;20544;50.018;20.010;2023-04-15T08:15:27;97849.27;;;15.01;100.00
23899;BME280;20544;50.018;20.010;2023-04-15T08:18:48;97849.30;;;15.53;100.00
23899;BME280;20544;50.018;20.010;2023-04-15T08:22:06;97845.63;;;15.43;100.00
23899;BME280;20544;50.018;20.010;2023-04-15T08:25:26;97854.02;;;15.75;100.00
23899;BME280;20544;50.018;20.010;2023-04-15T08:28:44;97859.05;;;16.00;100.00
23899;BME280;20544;50.018;20.010;2023-04-15T08:32:02;97855.33;;;16.01;100.00
23899;BME280;20544;50.018;20.010;2023-04-15T08:35:19;97853.00;;;16.22;100.00
23899;BME280;20544;50.018;20.010;2023-04-15T08:38:36;97851.48;;;16.26;100.00
23899;BME280;20544;50.018;20.010;2023-04-15T08:41:59;97853.03;;;16.39;100.00
23899;BME280;20544;50.018;20.010;2023-04-15T08:45:18;97851.02;;;16.46;100.00
23899;BME280;20544;50.018;20.010;2023-04-15T08:48:39;97860.77;;;17.48;100.00
23899;BME280;20544;50.018;20.010;2023-04-15T08:55:04;97857.92;;;17.77;100.00
23899;BME280;20544;50.018;20.010;2023-04-15T08:58:31;97863.39;;;18.09;100.00
23899;BME280;20544;50.018;20.010;2023-04-15T09:01:50;97863.38;;;18.37;100.00
23899;BME280;20544;50.018;20.010;2023-04-15T09:05:09;97868.93;;;18.30;100.00
23899;BME280;20544;50.018;20.010;2023-04-15T09:08:25;97867.17;;;18.14;100.00
23899;BME280;20544;50.018;20.010;2023-04-15T09:11:43;97868.02;;;17.48;100.00
23899;BME280;20544;50.018;20.010;2023-04-15T09:15:00;97864.29;;;17.09;100.00
23899;BME280;20544;50.018;20.010;2023-04-15T09:18:30;97856.52;;;16.57;100.00
23899;BME280;20544;50.018;20.010;2023-04-15T09:21:50;97860.48;;;16.20;100.00
23899;BME280;20544;50.018;20.010;2023-04-15T09:25:31;97856.88;;;16.14;100.00
23899;BME280;20544;50.018;20.010;2023-04-15T09:29:03;97852.84;;;15.83;100.00
23899;BME280;20544;50.018;20.010;2023-04-15T09:32:25;97846.80;;;15.76;100.00
23899;BME280;20544;50.018;20.010;2023-04-15T09:35:42;97850.02;;;15.49;100.00
23899;BME280;20544;50.018;20.010;2023-04-15T09:39:11;97852.71;;;15.37;100.00
23899;BME280;20544;50.018;20.010;2023-04-15T09:42:31;97852.57;;;15.44;100.00
23899;BME280;20544;50.018;20.010;2023-04-15T09:45:52;97858.24;;;15.59;100.00
23899;BME280;20544;50.018;20.010;2023-04-15T09:49:11;97853.23;;;15.63;100.00
23899;BME280;20544;50.018;20.010;2023-04-15T09:52:31;97858.94;;;15.55;100.00
23899;BME280;20544;50.018;20.010;2023-04-15T09:55:51;97852.91;;;15.47;100.00
23899;BME280;20544;50.018;20.010;2023-04-15T09:59:13;97860.91;;;15.59;100.00
23899;BME280;20544;50.018;20.010;2023-04-15T10:02:31;97849.89;;;15.44;100.00
23899;BME280;20544;50.018;20.010;2023-04-15T10:08:54;97846.68;;;15.30;100.00
23899;BME280;20544;50.018;20.010;2023-04-15T10:12:13;97844.84;;;15.30;100.00
23899;BME280;20544;50.018;20.010;2023-04-15T10:15:33;97857.47;;;15.35;100.00
23899;BME280;20544;50.018;20.010;2023-04-15T10:18:56;97852.02;;;15.82;100.00
23899;BME280;20544;50.018;20.010;2023-04-15T10:22:18;97844.45;;;15.79;100.00
23899;BME280;20544;50.018;20.010;2023-04-15T10:25:40;97848.69;;;16.04;100.00
23899;BME280;20544;50.018;20.010;2023-04-15T10:29:00;97852.39;;;16.49;100.00
23899;BME280;20544;50.018;20.010;2023-04-15T10:32:20;97851.82;;;16.30;100.00
23899;BME280;20544;50.018;20.010;2023-04-15T10:35:43;97852.28;;;16.27;100.00
23899;BME280;20544;50.018;20.010;2023-04-15T10:38:59;97851.70;;;16.25;100.00
23899;BME280;20544;50.018;20.010;2023-04-15T10:42:16;97855.88;;;16.32;100.00
23899;BME280;20544;50.018;20.010;2023-04-15T10:45:35;97848.48;;;16.40;100.00
23899;BME280;20544;50.018;20.010;2023-04-15T10:48:55;97857.59;;;16.10;100.00
23899;BME280;20544;50.018;20.010;2023-04-15T10:52:12;97855.21;;;16.25;100.00
23899;BME280;20544;50.018;20.010;2023-04-15T10:55:32;97847.74;;;15.69;100.00
23899;BME280;20544;50.018;20.010;2023-04-15T10:58:49;97848.08;;;15.73;100.00
23899;BME280;20544;50.018;20.010;2023-04-15T11:02:06;97841.88;;;16.13;100.00
23899;BME280;20544;50.018;20.010;2023-04-15T11:09:33;97844.67;;;15.90;100.00
23899;BME280;20544;50.018;20.010;2023-04-15T11:12:51;97847.00;;;15.86;100.00
23899;BME280;20544;50.018;20.010;2023-04-15T11:16:10;97847.31;;;15.61;100.00
23899;BME280;20544;50.018;20.010;2023-04-15T11:19:27;97855.38;;;15.37;100.00
23899;BME280;20544;50.018;20.010;2023-04-15T11:22:53;97849.09;;;15.43;100.00
23899;BME280;20544;50.018;20.010;2023-04-15T11:26:12;97857.71;;;15.33;100.00
23899;BME280;20544;50.018;20.010;2023-04-15T11:29:31;97857.95;;;15.20;100.00
23899;BME280;20544;50.018;20.010;2023-04-15T11:32:46;97857.05;;;15.14;100.00
23899;BME280;20544;50.018;20.010;2023-04-15T11:39:07;97862.49;;;15.08;100.00
23899;BME280;20544;50.018;20.010;2023-04-15T11:42:25;97860.64;;;14.96;100.00
23899;BME280;20544;50.018;20.010;2023-04-15T11:45:51;97863.20;;;14.91;100.00
23899;BME280;20544;50.018;20.010;2023-04-15T11:49:10;97875.04;;;14.83;100.00
23899;BME280;20544;50.018;20.010;2023-04-15T11:52:26;97867.73;;;14.67;100.00
23899;BME280;20544;50.018;20.010;2023-04-15T11:55:47;97865.53;;;14.76;100.00
23899;BME280;20544;50.018;20.010;2023-04-15T11:59:05;97870.95;;;14.69;100.00
23899;BME280;20544;50.018;20.010;2023-04-15T12:02:26;97870.87;;;14.76;100.00
23899;BME280;20544;50.018;20.010;2023-04-15T12:11:55;97870.39;;;14.79;100.00
23899;BME280;20544;50.018;20.010;2023-04-15T12:15:12;97870.17;;;14.92;100.00
23899;BME280;20544;50.018;20.010;2023-04-15T12:18:28;97867.27;;;14.94;100.00
23899;BME280;20544;50.018;20.010;2023-04-15T12:24:54;97877.36;;;15.03;100.00
23899;BME280;20544;50.018;20.010;2023-04-15T12:28:13;97874.80;;;15.09;100.00
23899;BME280;20544;50.018;20.010;2023-04-15T12:31:30;97878.05;;;14.99;100.00
23899;BME280;20544;50.018;20.010;2023-04-15T12:34:51;97875.27;;;14.94;100.00
23899;BME280;20544;50.018;20.010;2023-04-15T12:38:07;97880.97;;;14.85;100.00
23899;BME280;20544;50.018;20.010;2023-04-15T12:41:27;97874.69;;;14.80;100.00
23899;BME280;20544;50.018;20.010;2023-04-15T12:44:44;97881.42;;;14.82;100.00
23899;BME280;20544;50.018;20.010;2023-04-15T12:48:02;97879.64;;;14.64;100.00
23899;BME280;20544;50.018;20.010;2023-04-15T12:54:22;97875.11;;;14.53;100.00
23899;BME280;20544;50.018;20.010;2023-04-15T12:57:39;97876.70;;;14.42;100.00
23899;BME280;20544;50.018;20.010;2023-04-15T13:00:55;97874.11;;;14.35;100.00
23899;BME280;20544;50.018;20.010;2023-04-15T13:04:12;97879.45;;;14.35;100.00
23899;BME280;20544;50.018;20.010;2023-04-15T13:07:30;97877.50;;;14.43;100.00
23899;BME280;20544;50.018;20.010;2023-04-15T13:10:47;97883.88;;;14.42;100.00
23899;BME280;20544;50.018;20.010;2023-04-15T13:14:06;97876.23;;;14.45;100.00
23899;BME280;20544;50.018;20.010;2023-04-15T13:17:29;97877.41;;;14.49;100.00
23899;BME280;20544;50.018;20.010;2023-04-15T13:20:46;97872.08;;;14.49;100.00
23899;BME280;20544;50.018;20.010;2023-04-15T13:24:24;97874.27;;;14.52;100.00
23899;BME280;20544;50.018;20.010;2023-04-15T13:27:41;97876.27;;;14.57;100.00
23899;BME280;20544;50.018;20.010;2023-04-15T13:31:06;97876.63;;;14.61;100.00
23899;BME280;20544;50.018;20.010;2023-04-15T13:34:27;97876.70;;;14.54;100.00
23899;BME280;20544;50.018;20.010;2023-04-15T13:37:53;97880.44;;;14.53;100.00
23899;BME280;20544;50.018;20.010;2023-04-15T13:41:19;97877.63;;;14.48;100.00
23899;BME280;20544;50.018;20.010;2023-04-15T13:44:49;97872.29;;;14.48;100.00
23899;BME280;20544;50.018;20.010;2023-04-15T13:48:31;97877.98;;;14.51;100.00
23899;BME280;20544;50.018;20.010;2023-04-15T13:51:58;97872.08;;;14.49;100.00
23899;BME280;20544;50.018;20.010;2023-04-15T13:55:32;97868.70;;;14.54;100.00
23899;BME280;20544;50.018;20.010;2023-04-15T13:58:51;97863.48;;;14.59;100.00
23899;BME280;20544;50.018;20.010;2023-04-15T14:02:13;97858.89;;;14.66;100.00
23899;BME280;20544;50.018;20.010;2023-04-15T14:05:36;97871.79;;;14.69;100.00
23899;BME280;20544;50.018;20.010;2023-04-15T14:08:54;97863.42;;;14.78;100.00
23899;BME280;20544;50.018;20.010;2023-04-15T14:12:14;97872.48;;;14.88;100.00
23899;BME280;20544;50.018;20.010;2023-04-15T14:16:07;97867.85;;;14.96;100.00
23899;BME280;20544;50.018;20.010;2023-04-15T14:19:33;97885.27;;;14.98;100.00
23899;BME280;20544;50.018;20.010;2023-04-15T14:25:56;97877.47;;;15.09;100.00
23899;BME280;20544;50.018;20.010;2023-04-15T14:29:13;97883.16;;;14.88;100.00
23899;BME280;20544;50.018;20.010;2023-04-15T14:32:31;97889.91;;;14.79;100.00
23899;BME280;20544;50.018;20.010;2023-04-15T14:35:52;97883.86;;;14.72;100.00
23899;BME280;20544;50.018;20.010;2023-04-15T14:42:14;97879.29;;;14.61;100.00
23899;BME280;20544;50.018;20.010;2023-04-15T14:45:32;97882.05;;;14.54;100.00
23899;BME280;20544;50.018;20.010;2023-04-15T14:48:55;97879.73;;;14.46;100.00
23899;BME280;20544;50.018;20.010;2023-04-15T14:52:26;97882.71;;;14.37;100.00
23899;BME280;20544;50.018;20.010;2023-04-15T14:55:49;97886.66;;;14.35;100.00
23899;BME280;20544;50.018;20.010;2023-04-15T14:59:11;97888.95;;;14.31;100.00
23899;BME280;20544;50.018;20.010;2023-04-15T15:02:28;97893.13;;;14.27;100.00
23899;BME280;20544;50.018;20.010;2023-04-15T15:05:47;97889.97;;;14.18;100.00
23899;BME280;20544;50.018;20.010;2023-04-15T15:09:06;97887.88;;;14.20;100.00
23899;BME280;20544;50.018;20.010;2023-04-15T15:12:24;97895.73;;;14.15;100.00
23899;BME280;20544;50.018;20.010;2023-04-15T15:15:41;97905.01;;;14.13;100.00
23899;BME280;20544;50.018;20.010;2023-04-15T15:18:59;97903.61;;;14.10;100.00
23899;BME280;20544;50.018;20.010;2023-04-15T15:25:21;97905.48;;;14.10;100.00
23899;BME280;20544;50.018;20.010;2023-04-15T15:28:40;97906.88;;;14.12;100.00
23899;BME280;20544;50.018;20.010;2023-04-15T15:31:58;97901.00;;;14.22;100.00
23899;BME280;20544;50.018;20.010;2023-04-15T15:35:21;97893.85;;;14.34;100.00
23899;BME280;20544;50.018;20.010;2023-04-15T15:38:41;97896.17;;;14.43;100.00
23899;BME280;20544;50.018;20.010;2023-04-15T15:42:01;97898.97;;;14.48;100.00
23899;BME280;20544;50.018;20.010;2023-04-15T15:45:28;97898.97;;;14.48;100.00
23899;BME280;20544;50.018;20.010;2023-04-15T15:48:48;97908.03;;;14.47;100.00
23899;BME280;20544;50.018;20.010;2023-04-15T15:55:13;97917.49;;;14.31;100.00
23899;BME280;20544;50.018;20.010;2023-04-15T15:58:31;97930.33;;;14.22;100.00
23899;BME280;20544;50.018;20.010;2023-04-15T16:01:48;97944.00;;;13.77;100.00
23899;BME280;20544;50.018;20.010;2023-04-15T16:05:05;97935.72;;;13.48;100.00
23899;BME280;20544;50.018;20.010;2023-04-15T16:11:30;97940.84;;;13.24;100.00
23899;BME280;20544;50.018;20.010;2023-04-15T16:14:47;97933.61;;;12.55;100.00
23899;BME280;20544;50.018;20.010;2023-04-15T16:18:08;97933.42;;;12.18;100.00
23899;BME280;20544;50.018;20.010;2023-04-15T16:21:25;97935.12;;;12.06;100.00
23899;BME280;20544;50.018;20.010;2023-04-15T16:25:17;97940.28;;;11.87;100.00
23899;BME280;20544;50.018;20.010;2023-04-15T16:28:35;97948.50;;;11.79;100.00
23899;BME280;20544;50.018;20.010;2023-04-15T16:32:00;97949.34;;;11.66;100.00
23899;BME280;20544;50.018;20.010;2023-04-15T16:35:18;97954.31;;;11.49;100.00
23899;BME280;20544;50.018;20.010;2023-04-15T16:38:35;97961.42;;;11.62;100.00
23899;BME280;20544;50.018;20.010;2023-04-15T16:41:54;97957.28;;;11.79;100.00
23899;BME280;20544;50.018;20.010;2023-04-15T16:45:14;97961.97;;;11.84;100.00
23899;BME280;20544;50.018;20.010;2023-04-15T16:48:32;97958.95;;;11.67;100.00
23899;BME280;20544;50.018;20.010;2023-04-15T16:51:50;97958.38;;;11.52;100.00
23899;BME280;20544;50.018;20.010;2023-04-15T16:55:10;97965.97;;;11.35;100.00
23899;BME280;20544;50.018;20.010;2023-04-15T16:58:27;97979.67;;;11.18;100.00
23899;BME280;20544;50.018;20.010;2023-04-15T17:01:45;97977.02;;;10.98;100.00
23899;BME280;20544;50.018;20.010;2023-04-15T17:05:06;97984.14;;;10.97;100.00
23899;BME280;20544;50.018;20.010;2023-04-15T17:08:26;97994.55;;;10.92;100.00
23899;BME280;20544;50.018;20.010;2023-04-15T17:11:43;98002.91;;;10.82;100.00
23899;BME280;20544;50.018;20.010;2023-04-15T17:15:05;97999.42;;;10.68;100.00
23899;BME280;20544;50.018;20.010;2023-04-15T17:18:24;98006.16;;;10.71;100.00
23899;BME280;20544;50.018;20.010;2023-04-15T17:21:41;98007.59;;;10.67;100.00
23899;BME280;20544;50.018;20.010;2023-04-15T17:24:59;98009.20;;;10.55;100.00
23899;BME280;20544;50.018;20.010;2023-04-15T17:28:16;98015.51;;;10.54;100.00
23899;BME280;20544;50.018;20.010;2023-04-15T17:31:33;98021.44;;;10.56;100.00
23899;BME280;20544;50.018;20.010;2023-04-15T17:34:51;98022.66;;;10.60;100.00
23899;BME280;20544;50.018;20.010;2023-04-15T17:41:14;98036.55;;;10.68;100.00
23899;BME280;20544;50.018;20.010;2023-04-15T17:44:34;98044.25;;;10.50;100.00
23899;BME280;20544;50.018;20.010;2023-04-15T17:47:51;98046.59;;;10.31;100.00
23899;BME280;20544;50.018;20.010;2023-04-15T17:51:09;98046.79;;;10.23;100.00
23899;BME280;20544;50.018;20.010;2023-04-15T17:54:26;98057.13;;;10.18;100.00
23899;BME280;20544;50.018;20.010;2023-04-15T17:57:47;98065.34;;;10.23;100.00
23899;BME280;20544;50.018;20.010;2023-04-15T18:01:13;98077.33;;;10.19;100.00
23899;BME280;20544;50.018;20.010;2023-04-15T18:04:33;98075.44;;;10.06;100.00
23899;BME280;20544;50.018;20.010;2023-04-15T18:07:54;98075.75;;;9.90;100.00
23899;BME280;20544;50.018;20.010;2023-04-15T18:11:11;98085.85;;;9.79;100.00
23899;BME280;20544;50.018;20.010;2023-04-15T18:14:31;98090.05;;;9.67;100.00
23899;BME280;20544;50.018;20.010;2023-04-15T18:17:52;98101.00;;;9.57;100.00
23899;BME280;20544;50.018;20.010;2023-04-15T18:21:12;98106.38;;;9.42;100.00
23899;BME280;20544;50.018;20.010;2023-04-15T18:24:32;98116.08;;;9.35;100.00
23899;BME280;20544;50.018;20.010;2023-04-15T18:28:13;98120.92;;;9.31;100.00
23899;BME280;20544;50.018;20.010;2023-04-15T18:31:31;98120.88;;;9.25;100.00
23899;BME280;20544;50.018;20.010;2023-04-15T18:34:49;98121.48;;;9.27;100.00
23899;BME280;20544;50.018;20.010;2023-04-15T18:38:05;98120.88;;;9.25;100.00
23899;BME280;20544;50.018;20.010;2023-04-15T18:41:21;98121.63;;;9.18;100.00
23899;BME280;20544;50.018;20.010;2023-04-15T18:44:39;98125.28;;;9.17;100.00
23899;BME280;20544;50.018;20.010;2023-04-15T18:47:57;98133.83;;;9.19;100.00